Time;durP1;ratioP1;P1;durP2;ratioP2;P2;SDS_P1;SDS_P2;PMS_P1;PMS_P2;Temp;Humidity;BMP_temperature;BMP_pressure;BME280_temperature;BME280_humidity;BME280_pressure;Samples;Min_cycle;Max_cycle;Signal;HPM_P1;HPM_P2
2021/12/19 00:09:04;;;;;;;78.88;55.78;;;17.10;59.10;;;;;;4945506;28;89726;-71
2021/12/19 00:11:31;;;;;;;79.82;56.47;;;17.10;59.10;;;;;;4947096;28;90036;-71
2021/12/19 00:13:57;;;;;;;78.45;56.38;;;17.00;59.20;;;;;;4945210;28;93882;-71
2021/12/19 00:16:23;;;;;;;78.25;55.42;;;17.00;59.20;;;;;;4943967;28;90769;-70
2021/12/19 00:18:50;;;;;;;77.10;55.55;;;17.00;59.30;;;;;;4945817;28;93041;-71
2021/12/19 00:21:20;;;;;;;77.65;55.83;;;17.00;59.20;;;;;;4953932;28;90761;-71
2021/12/19 00:23:49;;;;;;;78.00;55.17;;;17.00;59.40;;;;;;4947622;28;90542;-71
2021/12/19 00:26:16;;;;;;;76.97;54.72;;;17.00;59.40;;;;;;4950495;28;90350;-71
2021/12/19 00:28:43;;;;;;;77.93;55.63;;;17.00;59.30;;;;;;4950879;28;90243;-71
2021/12/19 00:31:09;;;;;;;78.95;55.72;;;17.00;59.50;;;;;;4946494;28;90043;-71
2021/12/19 00:33:35;;;;;;;78.38;55.13;;;16.90;60.10;;;;;;4950524;28;88707;-71
2021/12/19 00:36:01;;;;;;;77.55;55.10;;;17.00;59.50;;;;;;4948531;28;89768;-71
2021/12/19 00:38:27;;;;;;;78.40;55.60;;;16.90;59.40;;;;;;4949162;28;90691;-71
2021/12/19 00:40:53;;;;;;;77.68;55.38;;;16.90;59.60;;;;;;4946198;28;91392;-71
2021/12/19 00:43:45;;;;;;;78.28;55.33;;;16.90;59.60;;;;;;4947058;28;90476;-71
2021/12/19 00:46:08;;;;;;;78.15;55.28;;;16.90;59.60;;;;;;4945283;28;90579;-71
2021/12/19 00:48:35;;;;;;;77.13;55.20;;;16.80;59.60;;;;;;4952641;28;90440;-71
2021/12/19 00:51:02;;;;;;;77.03;54.95;;;16.80;59.70;;;;;;4948352;28;91796;-71
2021/12/19 00:53:27;;;;;;;77.45;54.22;;;16.80;59.80;;;;;;4952997;28;92135;-71
2021/12/19 00:55:54;;;;;;;75.75;54.78;;;16.80;59.80;;;;;;4964994;28;90658;-71
2021/12/19 00:58:19;;;;;;;77.10;54.88;;;16.80;59.70;;;;;;4947471;28;89039;-71
2021/12/19 01:00:45;;;;;;;75.63;54.42;;;16.80;59.80;;;;;;4945843;28;90813;-71
2021/12/19 01:03:11;;;;;;;76.80;55.00;;;16.80;59.80;;;;;;4954233;28;89762;-70
2021/12/19 01:05:39;;;;;;;75.25;54.13;;;16.80;59.80;;;;;;4947976;28;90996;-72
2021/12/19 01:08:05;;;;;;;75.15;54.17;;;16.80;59.80;;;;;;4942111;28;90912;-71
2021/12/19 01:10:32;;;;;;;75.78;54.05;;;16.70;59.80;;;;;;4947192;28;92769;-71
2021/12/19 01:13:18;;;;;;;73.64;53.79;;;16.70;59.60;;;;;;2912985;28;10093296;-71
2021/12/19 01:15:44;;;;;;;75.57;54.17;;;16.70;59.90;;;;;;2882354;28;10090882;-71
2021/12/19 01:18:10;;;;;;;75.15;54.60;;;16.70;59.90;;;;;;4949246;28;89558;-71
2021/12/19 01:20:38;;;;;;;75.63;54.05;;;16.70;60.00;;;;;;4953002;28;91776;-71
2021/12/19 01:23:05;;;;;;;74.60;53.90;;;16.60;59.80;;;;;;4957706;28;88869;-71
2021/12/19 01:25:31;;;;;;;74.07;54.13;;;16.60;60.00;;;;;;4952624;28;90621;-71
2021/12/19 01:27:57;;;;;;;74.65;53.65;;;16.60;60.00;;;;;;4947149;28;92198;-71
2021/12/19 01:30:23;;;;;;;72.50;53.05;;;16.60;60.00;;;;;;4947617;28;90666;-71
2021/12/19 01:32:49;;;;;;;73.90;53.55;;;16.60;60.00;;;;;;4947873;28;90075;-71
2021/12/19 01:35:18;;;;;;;73.40;53.28;;;16.60;60.00;;;;;;4952381;28;90395;-72
2021/12/19 01:37:44;;;;;;;73.47;53.47;;;16.60;60.00;;;;;;4943113;28;90645;-71
2021/12/19 01:40:12;;;;;;;74.45;53.42;;;16.60;60.70;;;;;;4946938;28;91446;-71
2021/12/19 01:42:41;;;;;;;73.78;53.90;;;16.50;60.80;;;;;;4949459;28;91017;-72
2021/12/19 01:45:09;;;;;;;73.03;53.30;;;16.60;60.00;;;;;;4948477;28;91841;-72
2021/12/19 01:47:35;;;;;;;74.03;53.03;;;16.60;59.90;;;;;;4952328;28;90447;-71
2021/12/19 01:50:01;;;;;;;75.90;53.75;;;16.60;60.00;;;;;;4950637;28;91291;-71
2021/12/19 01:52:28;;;;;;;73.97;53.33;;;16.50;60.00;;;;;;4950844;28;90767;-71
2021/12/19 01:54:56;;;;;;;73.63;53.33;;;16.50;60.80;;;;;;4951954;28;91265;-71
2021/12/19 01:57:24;;;;;;;73.88;53.25;;;16.50;60.00;;;;;;4948361;28;90670;-70
2021/12/19 01:59:50;;;;;;;72.65;52.65;;;16.50;60.00;;;;;;4944208;28;91334;-71
2021/12/19 02:02:15;;;;;;;72.63;52.63;;;16.50;60.00;;;;;;4953147;28;90195;-71
2021/12/19 02:04:43;;;;;;;71.97;52.65;;;16.50;60.20;;;;;;4948811;28;89803;-72
2021/12/19 02:07:10;;;;;;;72.68;52.35;;;16.50;60.10;;;;;;4942316;28;91607;-71
2021/12/19 02:09:36;;;;;;;72.43;52.33;;;16.50;60.00;;;;;;4952009;28;89963;-71
2021/12/19 02:12:03;;;;;;;71.05;52.72;;;16.40;60.10;;;;;;4950380;28;89157;-71
2021/12/19 02:14:29;;;;;;;72.88;53.20;;;16.40;60.20;;;;;;4949840;28;90843;-71
2021/12/19 02:16:56;;;;;;;71.78;52.38;;;16.40;60.20;;;;;;4948226;28;90720;-71
2021/12/19 02:19:24;;;;;;;70.43;52.10;;;16.40;60.10;;;;;;4949393;28;95945;-71
2021/12/19 02:21:50;;;;;;;73.20;53.50;;;16.40;60.20;;;;;;4946749;28;90361;-71
2021/12/19 02:24:15;;;;;;;72.45;52.35;;;16.40;60.30;;;;;;4950630;28;91929;-71
2021/12/19 02:26:41;;;;;;;71.50;52.58;;;16.40;60.00;;;;;;4954110;28;89826;-71
2021/12/19 02:29:07;;;;;;;71.18;52.17;;;16.30;60.30;;;;;;4953736;28;91093;-71
2021/12/19 02:31:33;;;;;;;71.18;52.08;;;16.40;60.30;;;;;;4942861;28;90404;-71
2021/12/19 02:34:06;;;;;;;71.35;52.10;;;16.40;60.30;;;;;;4951695;28;89871;-71
2021/12/19 02:36:51;;;;;;;72.05;52.30;;;16.30;60.30;;;;;;4949184;28;89598;-71
2021/12/19 02:48:13;;;;;;;70.38;51.70;;;16.30;60.20;;;;;;4945721;28;91340;-71
2021/12/19 02:50:45;;;;;;;70.80;51.75;;;16.30;60.10;;;;;;4946771;28;89949;-71
2021/12/19 02:53:12;;;;;;;72.40;52.10;;;16.30;60.30;;;;;;4953869;28;90435;-71
2021/12/19 02:55:39;;;;;;;70.40;51.40;;;16.30;60.40;;;;;;4947130;28;90600;-71
2021/12/19 02:58:05;;;;;;;72.05;52.28;;;16.30;60.40;;;;;;4946984;28;90564;-71
2021/12/19 03:00:31;;;;;;;70.63;52.10;;;16.20;60.20;;;;;;4939162;28;91078;-71
2021/12/19 03:02:57;;;;;;;71.22;52.00;;;16.30;60.40;;;;;;4947817;28;89708;-71
2021/12/19 03:05:23;;;;;;;70.57;51.85;;;16.30;60.10;;;;;;4950264;28;89910;-71
2021/12/19 03:07:51;;;;;;;70.70;51.90;;;16.30;60.40;;;;;;4942279;28;89622;-71
2021/12/19 03:18:10;;;;;;;69.07;50.95;;;16.20;60.30;;;;;;4946380;28;90041;-71
2021/12/19 03:20:37;;;;;;;71.30;52.38;;;16.20;60.20;;;;;;4947861;28;90111;-71
2021/12/19 03:23:04;;;;;;;71.18;51.95;;;16.20;60.40;;;;;;4947108;28;90649;-71
2021/12/19 03:25:31;;;;;;;69.32;51.55;;;16.20;60.40;;;;;;4944185;28;89474;-71
2021/12/19 03:27:58;;;;;;;70.45;52.33;;;16.20;60.50;;;;;;4947614;28;92472;-71
2021/12/19 03:30:24;;;;;;;70.32;51.63;;;16.10;60.40;;;;;;4949836;28;90553;-71
2021/12/19 03:32:50;;;;;;;70.82;51.67;;;16.10;60.40;;;;;;4951389;28;90609;-71
2021/12/19 03:35:16;;;;;;;69.38;51.33;;;16.10;60.40;;;;;;4942657;28;91389;-71
2021/12/19 03:37:43;;;;;;;70.25;51.47;;;16.10;60.40;;;;;;4937702;28;91092;-71
2021/12/19 03:40:12;;;;;;;69.95;51.50;;;16.10;60.40;;;;;;4945234;28;90242;-71
2021/12/19 03:42:46;;;;;;;69.50;51.35;;;16.10;60.40;;;;;;4948315;28;90792;-71
2021/12/19 03:45:16;;;;;;;70.03;51.00;;;16.10;60.10;;;;;;4946097;28;90847;-71
2021/12/19 03:47:41;;;;;;;69.63;51.53;;;16.10;60.40;;;;;;4946948;28;89735;-71
2021/12/19 03:50:10;;;;;;;70.07;51.88;;;16.10;60.50;;;;;;4946264;28;90453;-71
2021/12/19 03:52:36;;;;;;;70.07;50.97;;;16.10;60.40;;;;;;4965094;28;88714;-71
2021/12/19 03:55:03;;;;;;;68.88;51.05;;;16.10;60.40;;;;;;4948943;28;89974;-71
2021/12/19 03:57:29;;;;;;;69.55;50.72;;;16.10;60.40;;;;;;4944338;28;93928;-71
2021/12/19 03:59:54;;;;;;;68.93;50.75;;;16.10;60.30;;;;;;4942372;28;92273;-71
2021/12/19 04:02:29;;;;;;;69.43;51.13;;;16.10;60.40;;;;;;4949296;28;89682;-71
2021/12/19 04:04:57;;;;;;;68.60;50.80;;;16.00;60.50;;;;;;4947583;28;90634;-71
2021/12/19 04:07:24;;;;;;;69.22;51.03;;;16.00;60.40;;;;;;4944445;28;89758;-71
2021/12/19 04:09:50;;;;;;;70.35;51.65;;;16.00;60.40;;;;;;4946393;28;90419;-71
2021/12/19 04:12:16;;;;;;;70.00;51.30;;;16.00;60.40;;;;;;4945126;28;89477;-71
2021/12/19 04:14:45;;;;;;;68.72;50.75;;;16.00;60.40;;;;;;4948944;28;90856;-71
2021/12/19 04:17:11;;;;;;;68.40;50.55;;;16.00;60.40;;;;;;4945939;28;89289;-71
2021/12/19 04:19:37;;;;;;;68.65;50.65;;;16.00;60.50;;;;;;4951654;28;89979;-71
2021/12/19 04:22:03;;;;;;;68.72;51.13;;;16.00;60.50;;;;;;4949744;28;89782;-71
2021/12/19 04:24:28;;;;;;;68.28;50.80;;;16.00;60.50;;;;;;4948437;28;91970;-71
2021/12/19 04:26:55;;;;;;;70.20;51.33;;;16.00;60.40;;;;;;4951496;28;89993;-71
2021/12/19 04:29:23;;;;;;;68.80;51.00;;;16.00;60.60;;;;;;4951777;28;89313;-71
2021/12/19 04:31:49;;;;;;;69.22;51.10;;;16.00;60.50;;;;;;4951828;28;90595;-71
2021/12/19 04:34:16;;;;;;;68.15;50.25;;;15.90;60.40;;;;;;4951541;28;91826;-71
2021/12/19 04:36:44;;;;;;;67.82;50.63;;;16.00;60.60;;;;;;4952698;28;89815;-71
2021/12/19 05:02:46;;;;;;;68.00;50.28;;;15.90;60.50;;;;;;4947359;28;89985;-71
2021/12/19 05:15:57;;;;;;;66.93;50.28;;;16.00;60.60;;;;;;4952215;28;92721;-71
2021/12/19 05:18:26;;;;;;;67.50;50.45;;;16.20;60.20;;;;;;4951211;28;91447;-71
2021/12/19 05:20:59;;;;;;;68.57;51.05;;;16.30;60.10;;;;;;4951967;28;95149;-71
2021/12/19 05:23:49;;;;;;;69.45;50.83;;;16.50;59.80;;;;;;4948043;28;89333;-71
2021/12/19 05:26:16;;;;;;;69.72;51.15;;;16.70;59.40;;;;;;4954604;28;89698;-71
2021/12/19 05:28:42;;;;;;;69.07;50.72;;;16.90;59.10;;;;;;4953140;28;89761;-71
2021/12/19 05:31:08;;;;;;;69.30;51.30;;;17.10;58.70;;;;;;4948693;28;89727;-71
2021/12/19 05:33:34;;;;;;;70.22;51.17;;;17.20;58.30;;;;;;4950248;28;88912;-71
2021/12/19 05:46:43;;;;;;;69.20;50.53;;;18.00;56.70;;;;;;4951232;28;89623;-71
2021/12/19 05:49:10;;;;;;;69.35;50.60;;;18.10;56.50;;;;;;4948848;28;91355;-71
2021/12/19 05:51:37;;;;;;;69.15;50.45;;;18.20;56.30;;;;;;4952048;28;95191;-71
2021/12/19 05:54:04;;;;;;;70.07;50.55;;;18.30;55.90;;;;;;4951655;28;91368;-71
2021/12/19 05:56:29;;;;;;;70.68;50.95;;;18.40;55.70;;;;;;4947399;28;91158;-71
2021/12/19 05:58:55;;;;;;;68.97;50.50;;;18.50;55.80;;;;;;4947414;28;89974;-71
2021/12/19 06:01:21;;;;;;;68.32;50.30;;;18.50;55.40;;;;;;4951302;28;89986;-71
2021/12/19 06:03:46;;;;;;;69.45;51.17;;;18.50;55.40;;;;;;4949562;28;90288;-71
2021/12/19 06:06:12;;;;;;;70.50;51.45;;;18.50;55.60;;;;;;4950423;28;91358;-71
2021/12/19 06:08:37;;;;;;;70.68;51.65;;;18.60;55.60;;;;;;4943173;28;91299;-70
2021/12/19 06:11:03;;;;;;;69.22;50.63;;;18.60;55.40;;;;;;4945219;28;90015;-71
2021/12/19 06:13:29;;;;;;;69.40;50.97;;;18.60;55.20;;;;;;4947838;28;89810;-71
2021/12/19 06:15:57;;;;;;;69.05;50.72;;;18.60;55.40;;;;;;4948100;28;93347;-71
2021/12/19 06:18:23;;;;;;;69.68;50.85;;;18.60;55.10;;;;;;4951357;28;90065;-72
2021/12/19 06:20:49;;;;;;;69.47;50.90;;;18.70;55.00;;;;;;4947266;28;90191;-71
2021/12/19 06:23:15;;;;;;;69.55;50.90;;;18.60;55.10;;;;;;4950220;28;89323;-71
2021/12/19 06:25:45;;;;;;;69.28;50.97;;;18.60;55.10;;;;;;4945993;28;90448;-71
2021/12/19 06:28:18;;;;;;;68.75;50.65;;;18.60;55.30;;;;;;4950372;28;92631;-71
2021/12/19 06:30:44;;;;;;;69.47;50.78;;;18.60;55.10;;;;;;4950224;28;91582;-71
2021/12/19 06:33:10;;;;;;;69.00;50.75;;;18.60;55.20;;;;;;4954043;28;91125;-71
2021/12/19 06:35:36;;;;;;;68.90;50.63;;;18.60;55.30;;;;;;4964238;28;95873;-71
2021/12/19 06:38:03;;;;;;;70.53;50.95;;;18.60;55.10;;;;;;4944067;28;91505;-71
2021/12/19 06:40:28;;;;;;;68.85;50.70;;;18.60;55.80;;;;;;4947369;28;90009;-71
2021/12/19 06:42:55;;;;;;;68.40;50.28;;;18.50;55.00;;;;;;4949855;28;90101;-71
2021/12/19 06:45:21;;;;;;;69.43;51.05;;;18.50;55.40;;;;;;4950493;28;91037;-71
2021/12/19 06:47:47;;;;;;;68.47;50.45;;;18.50;55.20;;;;;;4952652;28;91074;-71
2021/12/19 06:50:15;;;;;;;69.18;50.42;;;18.40;55.40;;;;;;4951447;28;90279;-71
2021/12/19 06:52:42;;;;;;;68.78;50.35;;;18.40;55.20;;;;;;4953799;28;90672;-72
2021/12/19 06:55:09;;;;;;;69.15;50.38;;;18.40;55.40;;;;;;4945689;28;92178;-71
2021/12/19 06:57:35;;;;;;;68.43;50.42;;;18.30;55.50;;;;;;4963064;28;91614;-71
2021/12/19 07:00:04;;;;;;;68.97;50.55;;;18.30;55.40;;;;;;4941173;28;90793;-71
2021/12/19 07:02:29;;;;;;;68.13;50.08;;;18.30;55.70;;;;;;4953561;28;89891;-71
2021/12/19 07:04:55;;;;;;;68.60;50.45;;;18.30;55.60;;;;;;4944875;28;90939;-71
2021/12/19 07:07:21;;;;;;;68.88;50.42;;;18.30;55.60;;;;;;4940372;28;90982;-71
2021/12/19 07:09:47;;;;;;;67.85;50.05;;;18.20;55.70;;;;;;4933113;28;90737;-72
2021/12/19 07:12:12;;;;;;;68.05;50.22;;;18.20;55.50;;;;;;4935910;28;89821;-71
2021/12/19 07:14:38;;;;;;;68.85;50.50;;;18.10;55.60;;;;;;4938611;28;90160;-72
2021/12/19 07:17:04;;;;;;;68.88;50.15;;;18.10;55.80;;;;;;4937613;28;91464;-73
2021/12/19 07:19:29;;;;;;;69.38;50.45;;;18.10;55.90;;;;;;4952162;28;91551;-72
2021/12/19 07:21:55;;;;;;;68.72;50.22;;;18.10;56.00;;;;;;4935114;28;90433;-71
2021/12/19 07:24:21;;;;;;;69.07;50.60;;;18.20;56.20;;;;;;4950616;28;90781;-72
2021/12/19 07:26:46;;;;;;;68.80;50.40;;;18.20;56.00;;;;;;4928877;28;94848;-70
2021/12/19 07:29:12;;;;;;;68.72;50.33;;;18.30;55.90;;;;;;4946992;28;89743;-73
2021/12/19 07:31:38;;;;;;;68.38;50.17;;;18.40;55.80;;;;;;4956771;28;90632;-72
2021/12/19 07:34:07;;;;;;;69.50;50.53;;;18.50;55.60;;;;;;4951898;28;91024;-73
2021/12/19 07:36:40;;;;;;;69.30;50.35;;;18.50;55.50;;;;;;4939233;28;90377;-72
2021/12/19 07:39:22;;;;;;;70.22;50.88;;;18.60;55.30;;;;;;4936715;28;90598;-73
2021/12/19 07:41:47;;;;;;;69.78;50.50;;;18.70;55.20;;;;;;4933189;28;92828;-72
2021/12/19 07:44:13;;;;;;;70.20;51.13;;;18.70;55.10;;;;;;4938178;28;92466;-72
2021/12/19 07:46:38;;;;;;;70.32;51.22;;;18.80;55.10;;;;;;4937617;28;90984;-72
2021/12/19 07:49:04;;;;;;;71.13;51.10;;;18.80;54.90;;;;;;4934290;28;89379;-72
2021/12/19 07:51:30;;;;;;;70.25;51.00;;;18.80;54.90;;;;;;4939090;28;90145;-72
2021/12/19 07:53:55;;;;;;;69.55;50.80;;;18.90;54.80;;;;;;4938887;28;91700;-72
2021/12/19 07:56:21;;;;;;;70.40;51.05;;;18.90;54.50;;;;;;4937104;28;90577;-72
2021/12/19 07:58:46;;;;;;;71.22;51.15;;;18.90;54.60;;;;;;4937506;28;90545;-72
2021/12/19 08:01:12;;;;;;;70.43;51.05;;;19.00;54.60;;;;;;4944178;28;94418;-72
2021/12/19 08:03:38;;;;;;;70.25;50.22;;;19.00;54.60;;;;;;4951540;28;90133;-72
2021/12/19 08:06:03;;;;;;;69.85;50.30;;;19.00;54.60;;;;;;4939284;28;91176;-72
2021/12/19 08:08:32;;;;;;;70.60;50.95;;;19.00;54.60;;;;;;4935965;28;91058;-72
2021/12/19 08:13:43;;;;;;;71.57;51.55;;;19.00;54.40;;;;;;4935226;28;89996;-72
2021/12/19 08:16:08;;;;;;;70.90;50.90;;;19.00;54.40;;;;;;4934785;28;91296;-71
2021/12/19 08:18:34;;;;;;;70.10;50.40;;;19.00;54.50;;;;;;4938804;28;90217;-71
2021/12/19 08:21:00;;;;;;;70.15;50.75;;;19.00;54.50;;;;;;4937352;28;91977;-72
2021/12/19 08:23:26;;;;;;;70.00;50.83;;;19.00;54.50;;;;;;4937576;28;92298;-72
2021/12/19 08:25:52;;;;;;;68.75;50.05;;;19.00;54.60;;;;;;4941213;28;89174;-72
2021/12/19 08:28:17;;;;;;;69.53;50.45;;;19.00;54.60;;;;;;4934228;28;92445;-72
2021/12/19 08:30:43;;;;;;;69.65;50.65;;;18.90;54.70;;;;;;4938675;28;90397;-71
2021/12/19 08:33:09;;;;;;;70.88;51.35;;;19.00;54.70;;;;;;4948063;28;90834;-72
2021/12/19 08:35:34;;;;;;;71.93;51.30;;;18.90;54.50;;;;;;4932718;28;90944;-70
2021/12/19 08:38:00;;;;;;;70.80;51.58;;;18.90;54.50;;;;;;4943098;28;90447;-72
2021/12/19 08:40:28;;;;;;;71.47;51.20;;;18.80;54.50;;;;;;4943868;28;90242;-71
2021/12/19 08:42:54;;;;;;;72.60;52.15;;;18.80;55.50;;;;;;4941270;28;90871;-72
2021/12/19 08:45:21;;;;;;;71.80;51.83;;;18.80;54.60;;;;;;4941564;28;90077;-71
2021/12/19 08:47:46;;;;;;;70.88;51.33;;;18.70;54.90;;;;;;4938105;28;90270;-72
2021/12/19 08:50:13;;;;;;;73.10;52.50;;;18.60;54.60;;;;;;4951389;28;89187;-72
2021/12/19 08:52:39;;;;;;;73.82;51.92;;;18.60;55.10;;;;;;4950788;28;91402;-72
2021/12/19 08:55:06;;;;;;;73.57;52.58;;;18.50;55.00;;;;;;4945202;28;90480;-72
2021/12/19 08:57:32;;;;;;;75.47;53.05;;;18.50;55.00;;;;;;4948496;28;90679;-72
2021/12/19 08:59:58;;;;;;;74.13;51.97;;;18.40;55.10;;;;;;4944601;28;94441;-72
2021/12/19 09:02:24;;;;;;;72.78;52.03;;;18.40;54.90;;;;;;4945273;28;92520;-72
2021/12/19 09:04:49;;;;;;;72.78;52.60;;;18.30;55.10;;;;;;4950923;28;90424;-72
2021/12/19 09:07:15;;;;;;;72.53;52.20;;;18.30;55.10;;;;;;4946207;28;95114;-72
2021/12/19 09:09:41;;;;;;;76.30;53.17;;;18.30;55.40;;;;;;4942876;28;89930;-72
2021/12/19 09:12:07;;;;;;;73.55;52.08;;;18.30;55.40;;;;;;4941095;28;91657;-72
2021/12/19 09:14:33;;;;;;;74.35;52.45;;;18.30;55.30;;;;;;4937036;28;90098;-72
2021/12/19 09:17:01;;;;;;;74.55;52.67;;;18.40;55.20;;;;;;4944327;28;90179;-72
2021/12/19 09:19:26;;;;;;;74.43;52.28;;;18.40;55.30;;;;;;4923173;28;90318;-72
2021/12/19 09:21:52;;;;;;;71.43;52.13;;;18.50;54.90;;;;;;4928911;28;93027;-72
2021/12/19 09:24:19;;;;;;;75.18;52.55;;;18.50;55.00;;;;;;4934758;28;92612;-72
2021/12/19 09:26:45;;;;;;;73.32;52.13;;;18.50;54.80;;;;;;4940296;28;90677;-72
2021/12/19 09:29:10;;;;;;;73.38;52.88;;;18.60;55.10;;;;;;4942815;28;90272;-73
2021/12/19 09:31:39;;;;;;;73.88;52.33;;;18.60;54.90;;;;;;4937278;28;90617;-72
2021/12/19 09:34:07;;;;;;;77.45;53.15;;;18.70;54.80;;;;;;4942832;28;91939;-72
2021/12/19 09:36:34;;;;;;;73.07;52.85;;;18.70;54.60;;;;;;4926911;28;90099;-72
2021/12/19 09:39:00;;;;;;;74.55;52.45;;;18.70;54.30;;;;;;4957943;28;89230;-72
2021/12/19 09:41:32;;;;;;;76.57;53.83;;;18.70;54.40;;;;;;4940756;28;90075;-72
2021/12/19 09:44:04;;;;;;;75.80;53.00;;;18.80;54.40;;;;;;4939369;28;91193;-73
2021/12/19 09:46:33;;;;;;;74.18;53.15;;;18.70;54.10;;;;;;4936093;28;91334;-72
2021/12/19 09:48:59;;;;;;;76.90;54.00;;;18.70;54.30;;;;;;4918980;28;90643;-73
2021/12/19 09:51:26;;;;;;;75.05;53.45;;;18.80;54.40;;;;;;4936880;28;90054;-73
2021/12/19 09:53:52;;;;;;;75.85;53.53;;;18.80;54.30;;;;;;4932136;28;91101;-73
2021/12/19 09:56:17;;;;;;;75.25;53.83;;;18.80;54.10;;;;;;4934901;28;90187;-73
2021/12/19 09:58:43;;;;;;;74.15;53.38;;;18.80;54.30;;;;;;4933265;28;91526;-73
2021/12/19 10:01:11;;;;;;;75.22;53.72;;;18.80;54.10;;;;;;4941319;28;90088;-73
2021/12/19 10:03:38;;;;;;;73.65;53.72;;;18.80;54.20;;;;;;4954989;28;90711;-73
2021/12/19 10:06:27;;;;;;;74.80;53.47;;;18.70;54.80;;;;;;4938385;28;90693;-73
2021/12/19 10:09:15;;;;;;;73.93;53.28;;;18.70;54.50;;;;;;4943271;28;91521;-74
2021/12/19 10:14:24;;;;;;;;;;;18.70;54.40;;;;;;4944285;28;90682;-73
2021/12/19 10:16:50;;;;;;;72.95;53.13;;;18.70;54.30;;;;;;4939338;28;90110;-73
2021/12/19 10:19:16;;;;;;;73.18;53.03;;;18.60;54.40;;;;;;4941779;28;90081;-74
2021/12/19 10:21:41;;;;;;;72.78;53.00;;;18.60;54.30;;;;;;4941944;28;90958;-74
2021/12/19 10:24:09;;;;;;;74.38;52.88;;;18.60;54.50;;;;;;4939994;28;91097;-74
2021/12/19 10:26:44;;;;;;;72.88;52.65;;;18.60;54.50;;;;;;4934878;28;90447;-73
2021/12/19 10:29:10;;;;;;;75.13;53.38;;;18.50;54.40;;;;;;4930353;28;90600;-73
2021/12/19 10:31:37;;;;;;;75.22;53.20;;;18.50;55.00;;;;;;4938173;28;90650;-73
2021/12/19 10:34:19;;;;;;;72.60;52.92;;;18.50;55.00;;;;;;4946771;28;91450;-73
2021/12/19 10:36:45;;;;;;;74.03;53.25;;;18.50;55.00;;;;;;4924862;28;92470;-73
2021/12/19 10:39:15;;;;;;;73.82;53.17;;;18.60;55.20;;;;;;4935917;28;91319;-73
2021/12/19 10:41:42;;;;;;;74.85;53.53;;;18.60;55.10;;;;;;4943203;28;93070;-73
2021/12/19 10:45:29;;;;;;;74.68;53.83;;;18.70;54.80;;;;;;4932797;28;92555;-73
2021/12/19 10:47:17;;;;;;;72.82;53.20;;;18.70;54.60;;;;;;4935006;28;90218;-73
2021/12/19 10:49:42;;;;;;;73.43;52.85;;;18.80;54.70;;;;;;4945215;28;89815;-73
2021/12/19 10:52:08;;;;;;;75.22;53.13;;;18.90;54.60;;;;;;4938822;28;89866;-73
2021/12/19 10:54:35;;;;;;;73.03;52.75;;;18.90;54.40;;;;;;4937344;28;91275;-73
2021/12/19 10:57:08;;;;;;;72.90;52.83;;;19.00;54.50;;;;;;4931325;28;91188;-74
2021/12/19 10:59:34;;;;;;;72.85;52.22;;;19.10;54.10;;;;;;4937900;28;93051;-73
2021/12/19 11:02:00;;;;;;;72.38;52.35;;;19.10;54.00;;;;;;4940660;28;90565;-73
2021/12/19 11:04:26;;;;;;;73.20;52.88;;;19.10;54.50;;;;;;4939936;28;90936;-73
2021/12/19 11:06:58;;;;;;;71.97;52.28;;;19.20;53.80;;;;;;4941379;28;89559;-73
2021/12/19 11:09:34;;;;;;;71.35;52.20;;;19.20;54.20;;;;;;4935498;28;89733;-74
2021/12/19 11:12:11;;;;;;;72.07;52.08;;;19.30;53.80;;;;;;4931781;28;90333;-73
2021/12/19 11:14:43;;;;;;;71.88;52.17;;;19.30;53.40;;;;;;4935470;28;91121;-73
2021/12/19 11:17:18;;;;;;;71.88;52.15;;;19.40;54.10;;;;;;4937305;28;90150;-74
2021/12/19 11:19:44;;;;;;;71.40;52.05;;;19.40;53.60;;;;;;4934823;28;94484;-74
2021/12/19 11:22:12;;;;;;;71.95;51.72;;;19.40;53.50;;;;;;4937077;28;90707;-78
2021/12/19 11:24:38;;;;;;;71.97;52.13;;;19.40;54.00;;;;;;4936984;28;90983;-74
2021/12/19 11:27:06;;;;;;;71.68;51.28;;;19.50;53.10;;;;;;4933569;28;92791;-73
2021/12/19 11:29:32;;;;;;;71.15;51.90;;;19.50;53.10;;;;;;4931184;28;94632;-72
2021/12/19 11:32:01;;;;;;;71.38;51.80;;;19.50;53.30;;;;;;4940168;28;91692;-72
2021/12/19 11:34:45;;;;;;;71.00;51.42;;;19.40;53.20;;;;;;4940205;28;90334;-73
2021/12/19 11:37:14;;;;;;;71.53;51.78;;;19.40;53.10;;;;;;4934821;28;91004;-72
2021/12/19 11:39:46;;;;;;;71.35;51.17;;;19.40;53.20;;;;;;4939175;28;92992;-72
2021/12/19 11:42:14;;;;;;;71.75;51.70;;;19.40;53.00;;;;;;4933862;28;90020;-71
2021/12/19 11:44:49;;;;;;;71.00;51.33;;;19.40;53.20;;;;;;4938444;28;90365;-69
2021/12/19 11:47:36;;;;;;;70.47;51.47;;;19.40;53.30;;;;;;4942407;28;90510;-71
2021/12/19 11:50:11;;;;;;;70.70;51.25;;;19.40;53.40;;;;;;4936008;28;90758;-72
2021/12/19 11:52:37;;;;;;;71.55;51.25;;;19.30;53.40;;;;;;4946258;28;93438;-72
2021/12/19 11:55:15;;;;;;;70.10;50.95;;;19.20;53.40;;;;;;4936255;28;90514;-72
2021/12/19 11:58:11;;;;;;;71.03;51.17;;;19.20;53.50;;;;;;4948548;28;89992;-72
2021/12/19 12:00:55;;;;;;;69.60;51.00;;;19.20;53.60;;;;;;4936876;28;90220;-73
2021/12/19 12:03:38;;;;;;;71.55;51.40;;;19.10;53.70;;;;;;4939101;28;90119;-73
2021/12/19 12:06:20;;;;;;;70.28;51.13;;;19.10;53.70;;;;;;4942599;28;89864;-73
2021/12/19 12:09:06;;;;;;;69.45;50.80;;;19.10;53.80;;;;;;4940315;28;91963;-72
2021/12/19 12:11:34;;;;;;;69.63;50.83;;;19.00;53.90;;;;;;4945101;28;90323;-73
2021/12/19 12:14:35;;;;;;;70.53;50.97;;;19.00;54.50;;;;;;4936408;28;91077;-73
2021/12/19 12:17:07;;;;;;;71.78;50.60;;;19.00;53.90;;;;;;4921524;28;91302;-73
2021/12/19 12:19:50;;;;;;;69.95;50.85;;;18.90;54.10;;;;;;4938975;28;91919;-73
2021/12/19 12:22:25;;;;;;;69.40;50.50;;;18.90;53.90;;;;;;4938349;28;90481;-73
2021/12/19 12:25:02;;;;;;;69.90;50.53;;;18.80;54.30;;;;;;4936034;28;91158;-73
2021/12/19 12:27:40;;;;;;;69.07;50.55;;;18.80;54.30;;;;;;4937052;28;90807;-73
2021/12/19 12:30:09;;;;;;;69.95;50.72;;;18.80;54.40;;;;;;4935238;28;90281;-73
2021/12/19 12:32:35;;;;;;;69.28;50.70;;;18.70;54.40;;;;;;4934192;28;90510;-73
2021/12/19 12:35:01;;;;;;;69.28;50.47;;;18.70;54.40;;;;;;4933128;28;95380;-73
2021/12/19 12:37:27;;;;;;;69.85;50.80;;;18.70;54.60;;;;;;4940043;28;90246;-73
2021/12/19 12:40:29;;;;;;;69.30;50.67;;;18.70;54.70;;;;;;4935666;28;89972;-72
2021/12/19 12:42:59;;;;;;;;;;;18.60;54.70;;;;;;4937583;28;92027;-73
2021/12/19 12:45:26;;;;;;;68.38;50.35;;;18.60;54.80;;;;;;4941069;28;91544;-71
2021/12/19 12:47:52;;;;;;;68.80;50.22;;;18.70;55.00;;;;;;4944382;28;90860;-72
2021/12/19 12:50:18;;;;;;;69.03;50.08;;;18.70;55.00;;;;;;4932202;28;91495;-73
2021/12/19 12:52:44;;;;;;;69.53;50.88;;;18.80;55.00;;;;;;4939635;28;90881;-73
2021/12/19 12:55:10;;;;;;;69.93;50.63;;;18.80;55.00;;;;;;4940180;28;90999;-73
2021/12/19 12:57:36;;;;;;;69.63;50.75;;;18.90;54.90;;;;;;4945027;28;90959;-73
2021/12/19 13:00:04;;;;;;;69.72;50.67;;;19.00;54.80;;;;;;4938410;28;90618;-73
2021/12/19 13:02:41;;;;;;;68.75;50.20;;;19.10;54.70;;;;;;4937831;28;90139;-73
2021/12/19 13:05:12;;;;;;;70.00;50.50;;;19.20;54.60;;;;;;4934702;28;91491;-74
2021/12/19 13:07:38;;;;;;;71.50;50.72;;;19.20;54.40;;;;;;4947073;28;91159;-73
2021/12/19 13:10:05;;;;;;;71.00;50.85;;;19.30;54.30;;;;;;4936433;28;91682;-73
2021/12/19 13:12:39;;;;;;;68.78;50.45;;;19.30;54.30;;;;;;4941256;28;90902;-73
2021/12/19 13:15:15;;;;;;;68.82;50.00;;;19.40;54.00;;;;;;4934140;28;91425;-73
2021/12/19 13:17:42;;;;;;;69.55;50.50;;;19.40;53.80;;;;;;4932896;28;90584;-72
2021/12/19 13:20:11;;;;;;;69.78;50.40;;;19.50;53.90;;;;;;4935957;28;90809;-73
2021/12/19 13:22:47;;;;;;;70.75;50.78;;;19.50;54.00;;;;;;4944587;28;90931;-73
2021/12/19 13:25:15;;;;;;;68.95;50.33;;;19.50;53.90;;;;;;4934540;28;90404;-73
2021/12/19 13:27:46;;;;;;;69.75;50.42;;;19.50;53.80;;;;;;4940640;28;89466;-73
2021/12/19 13:30:13;;;;;;;;;;;19.50;53.90;;;;;;4937553;28;91404;-73
2021/12/19 13:32:47;;;;;;;69.40;50.05;;;19.60;53.90;;;;;;4939397;28;91242;-73
2021/12/19 13:35:17;;;;;;;69.68;50.45;;;19.50;53.70;;;;;;4933671;28;93132;-73
2021/12/19 13:38:08;;;;;;;70.00;50.55;;;19.60;53.80;;;;;;4953849;28;92662;-73
2021/12/19 13:40:36;;;;;;;69.32;50.35;;;19.60;53.70;;;;;;4936504;28;90692;-73
2021/12/19 13:43:12;;;;;;;70.18;50.83;;;19.60;54.00;;;;;;4927543;28;91507;-72
2021/12/19 13:46:12;;;;;;;69.22;50.25;;;19.60;53.90;;;;;;4943987;28;90770;-72
2021/12/19 13:48:48;;;;;;;69.43;50.65;;;19.50;54.00;;;;;;4933114;28;90237;-72
2021/12/19 13:51:21;;;;;;;71.60;50.25;;;19.50;53.80;;;;;;4934009;28;90836;-72